Black Lake, Canada
Current Conditions -  °F | °C
As of 3:08 PM on Sunday 25 Jan 2015 (Local Time) from CYSC Reporting Station
Overcast Overcast  
Wind Chill: -11°   Ceiling: 2500
Heat Index:   Visibility: 9mi
Dew Point: -2°   Wind: 15mph
Humidity: 67%   Direction: 280°W
Pressure: 29.75"   Gusts: 25mph
Location:  46.03°N, 71.37°W
Report Text: CYSC 252008Z AUTO 28013G22KT 9SM OVC025 M14/M19 A2975 RMK SLP090
Loading
Personal Weather Stations






























Interactive Weather Map New forecast layout! Learn more

10-Day Weather Forecast

Advertisements
Track Severe Weather on mobile